Nearby METAR Reports

 

KSBP - San Luis Obispo, California, USA
Distance from station: S 14mi, 22km
Updated: Tue, 13-Apr-2021 6:56pm PDT
Overcast
Overcast
 Wind from WNW
Wind: WNW 12 mph , 19 km/h
Temperature: 52°F , 11°C
Dew Point: 43°F , 6°C
Humidity: 72%
Barometer: 29.93 inHg , 1013.5 hPa
Clouds: Overcast
Visibility: 9 miles , 14 km
Cloud details: Overcast 2300 ft
2021/04/14 01:56 KSBP 140156Z 30010KT 9SM OVC023 11/06 A2993 RMK AO2 SLP136 T01110056
KPRB - Paso Robles, California, USA
Distance from station: N 16mi, 26km
Updated: Tue, 13-Apr-2021 6:53pm PDT
Clear
Clear
 Wind from SSW
Wind: SSW 20 mph , 31 km/h, Gust: 26 mph , 43 km/h
Temperature: 54°F , 12°C
Dew Point: 43°F , 6°C
Humidity: 67%
Barometer: 29.85 inHg , 1010.8 hPa
Clouds: Clear
Visibility: 10 miles , 16 km
2021/04/14 01:53 KPRB 140153Z AUTO 20017G23KT 10SM CLR 12/06 A2985 RMK AO2 SLP108 T01170056
 
KSMX - Santa Maria, California, USA
Distance from station: SSE 38mi, 62km
Updated: Tue, 13-Apr-2021 6:51pm PDT
Haze, Overcast
Haze, Overcast
 Wind from WNW
Wind: WNW 13 mph , 20 km/h
Temperature: 52°F , 11°C
Dew Point: 43°F , 6°C
Humidity: 72%
Barometer: 29.94 inHg , 1013.9 hPa
Summary: Haze
Clouds: Overcast
Visibility: 6 miles , 10 km
Cloud details: Overcast 2400 ft
2021/04/14 01:51 KSMX 140151Z 29011KT 6SM HZ OVC024 11/06 A2994 RMK AO2 SLP142 T01110056
KVBG - Vandenberg Afb, California, USA
Distance from station: S 48mi, 78km
Updated: Tue, 13-Apr-2021 6:58pm PDT
Overcast
Overcast
 Wind from NNW
Wind: NNW 7 mph , 11 km/h
Temperature: 52°F , 11°C
Dew Point: 45°F , 7°C
Humidity: 77%
Barometer: 29.95 inHg , 1014.2 hPa
Clouds: Overcast
Visibility: 10 miles , 16 km
Cloud details: Overcast 1900 ft
2021/04/14 01:58 KVBG 140158Z AUTO 34006KT 10SM OVC019 11/07 A2995 RMK AO2 SLP146 T01050071